sensor_id;sensor_type;location;lat;lon;timestamp;temperature;humidity
38582;DHT22;24349;53.720;10.014;2023-05-09T00:00:35;12.30;98.00
38582;DHT22;24349;53.720;10.014;2023-05-09T00:03:01;12.20;98.10
38582;DHT22;24349;53.720;10.014;2023-05-09T00:05:30;12.20;98.20
38582;DHT22;24349;53.720;10.014;2023-05-09T00:07:56;12.10;98.50
38582;DHT22;24349;53.720;10.014;2023-05-09T00:10:21;12.10;98.20
38582;DHT22;24349;53.720;10.014;2023-05-09T00:12:47;12.10;98.30
38582;DHT22;24349;53.720;10.014;2023-05-09T00:15:14;12.00;98.50
38582;DHT22;24349;53.720;10.014;2023-05-09T00:17:39;12.00;98.40
38582;DHT22;24349;53.720;10.014;2023-05-09T00:20:08;12.00;98.70
38582;DHT22;24349;53.720;10.014;2023-05-09T00:22:37;12.00;98.90
38582;DHT22;24349;53.720;10.014;2023-05-09T00:25:04;12.00;99.10
38582;DHT22;24349;53.720;10.014;2023-05-09T00:27:30;11.90;99.10
38582;DHT22;24349;53.720;10.014;2023-05-09T00:29:56;11.90;99.10
38582;DHT22;24349;53.720;10.014;2023-05-09T00:32:21;11.80;99.30
38582;DHT22;24349;53.720;10.014;2023-05-09T00:34:47;11.80;99.60
38582;DHT22;24349;53.720;10.014;2023-05-09T00:37:12;11.70;99.60
38582;DHT22;24349;53.720;10.014;2023-05-09T00:39:38;11.80;99.90
38582;DHT22;24349;53.720;10.014;2023-05-09T00:42:04;11.70;99.50
38582;DHT22;24349;53.720;10.014;2023-05-09T00:44:29;11.70;99.90
38582;DHT22;24349;53.720;10.014;2023-05-09T00:46:55;11.60;99.90
38582;DHT22;24349;53.720;10.014;2023-05-09T00:49:21;11.50;99.90
38582;DHT22;24349;53.720;10.014;2023-05-09T00:51:47;11.50;99.90
38582;DHT22;24349;53.720;10.014;2023-05-09T00:54:13;11.50;99.90
38582;DHT22;24349;53.720;10.014;2023-05-09T00:56:39;11.40;99.90
38582;DHT22;24349;53.720;10.014;2023-05-09T00:59:04;11.40;99.90
38582;DHT22;24349;53.720;10.014;2023-05-09T01:01:33;11.30;99.90
38582;DHT22;24349;53.720;10.014;2023-05-09T01:03:59;11.40;99.90
38582;DHT22;24349;53.720;10.014;2023-05-09T01:06:41;11.30;99.90
38582;DHT22;24349;53.720;10.014;2023-05-09T01:15:26;11.20;99.90
38582;DHT22;24349;53.720;10.014;2023-05-09T01:20:42;11.10;99.90
38582;DHT22;24349;53.720;10.014;2023-05-09T01:25:56;11.00;99.90
38582;DHT22;24349;53.720;10.014;2023-05-09T01:31:12;11.00;99.90
38582;DHT22;24349;53.720;10.014;2023-05-09T01:33:41;10.90;99.90
38582;DHT22;24349;53.720;10.014;2023-05-09T01:36:12;10.90;99.90
38582;DHT22;24349;53.720;10.014;2023-05-09T01:38:41;10.80;99.90
38582;DHT22;24349;53.720;10.014;2023-05-09T01:41:08;10.80;99.90
38582;DHT22;24349;53.720;10.014;2023-05-09T01:43:37;10.80;99.90
38582;DHT22;24349;53.720;10.014;2023-05-09T01:46:05;10.80;99.90
38582;DHT22;24349;53.720;10.014;2023-05-09T01:48:34;10.80;99.90
38582;DHT22;24349;53.720;10.014;2023-05-09T01:51:01;10.80;99.90
38582;DHT22;24349;53.720;10.014;2023-05-09T01:53:28;10.70;99.90
38582;DHT22;24349;53.720;10.014;2023-05-09T01:55:55;10.60;99.90
38582;DHT22;24349;53.720;10.014;2023-05-09T01:58:22;10.60;99.90
38582;DHT22;24349;53.720;10.014;2023-05-09T02:00:49;10.60;99.90
38582;DHT22;24349;53.720;10.014;2023-05-09T02:03:16;10.60;99.90
38582;DHT22;24349;53.720;10.014;2023-05-09T02:05:43;10.60;99.90
38582;DHT22;24349;53.720;10.014;2023-05-09T02:08:09;10.60;99.90
38582;DHT22;24349;53.720;10.014;2023-05-09T02:10:36;10.60;99.90
38582;DHT22;24349;53.720;10.014;2023-05-09T02:13:02;10.60;99.90
38582;DHT22;24349;53.720;10.014;2023-05-09T02:15:28;10.50;99.90
38582;DHT22;24349;53.720;10.014;2023-05-09T02:17:54;10.50;99.90
38582;DHT22;24349;53.720;10.014;2023-05-09T02:20:20;10.50;99.90
38582;DHT22;24349;53.720;10.014;2023-05-09T02:22:46;10.50;99.90
38582;DHT22;24349;53.720;10.014;2023-05-09T02:25:12;10.50;99.90
38582;DHT22;24349;53.720;10.014;2023-05-09T02:27:39;10.50;99.90
38582;DHT22;24349;53.720;10.014;2023-05-09T02:30:08;10.50;99.90
38582;DHT22;24349;53.720;10.014;2023-05-09T02:32:36;10.40;99.90
38582;DHT22;24349;53.720;10.014;2023-05-09T02:35:04;10.40;99.90
38582;DHT22;24349;53.720;10.014;2023-05-09T02:37:31;10.30;99.90
38582;DHT22;24349;53.720;10.014;2023-05-09T02:39:58;10.30;99.90
38582;DHT22;24349;53.720;10.014;2023-05-09T02:42:25;10.20;99.90
38582;DHT22;24349;53.720;10.014;2023-05-09T02:44:51;10.20;99.90
38582;DHT22;24349;53.720;10.014;2023-05-09T02:47:17;10.10;99.90
38582;DHT22;24349;53.720;10.014;2023-05-09T02:49:43;10.00;99.90
38582;DHT22;24349;53.720;10.014;2023-05-09T02:52:09;10.00;99.90
38582;DHT22;24349;53.720;10.014;2023-05-09T02:54:36;10.00;99.90
38582;DHT22;24349;53.720;10.014;2023-05-09T02:57:02;10.10;99.90
38582;DHT22;24349;53.720;10.014;2023-05-09T02:59:28;10.00;99.90
38582;DHT22;24349;53.720;10.014;2023-05-09T03:01:53;10.00;99.90
38582;DHT22;24349;53.720;10.014;2023-05-09T03:04:19;10.00;99.90
38582;DHT22;24349;53.720;10.014;2023-05-09T03:06:44;10.00;99.90
38582;DHT22;24349;53.720;10.014;2023-05-09T03:09:10;10.00;99.90
38582;DHT22;24349;53.720;10.014;2023-05-09T03:11:37;9.90;99.90
38582;DHT22;24349;53.720;10.014;2023-05-09T03:14:03;9.80;99.90
38582;DHT22;24349;53.720;10.014;2023-05-09T03:16:28;9.80;99.90
38582;DHT22;24349;53.720;10.014;2023-05-09T03:18:54;9.80;99.90
38582;DHT22;24349;53.720;10.014;2023-05-09T03:21:20;9.80;99.90
38582;DHT22;24349;53.720;10.014;2023-05-09T03:23:45;9.70;99.90
38582;DHT22;24349;53.720;10.014;2023-05-09T03:26:11;9.70;99.90
38582;DHT22;24349;53.720;10.014;2023-05-09T03:28:37;9.70;99.90
38582;DHT22;24349;53.720;10.014;2023-05-09T03:31:03;9.60;99.90
38582;DHT22;24349;53.720;10.014;2023-05-09T03:33:29;9.60;99.90
38582;DHT22;24349;53.720;10.014;2023-05-09T03:35:54;9.60;99.90
38582;DHT22;24349;53.720;10.014;2023-05-09T03:38:20;9.50;99.90
38582;DHT22;24349;53.720;10.014;2023-05-09T03:40:49;9.50;1.00
38582;DHT22;24349;53.720;10.014;2023-05-09T03:43:14;9.50;1.00
38582;DHT22;24349;53.720;10.014;2023-05-09T03:45:40;9.40;99.90
38582;DHT22;24349;53.720;10.014;2023-05-09T03:48:06;9.40;99.90
38582;DHT22;24349;53.720;10.014;2023-05-09T03:50:34;9.40;99.90
38582;DHT22;24349;53.720;10.014;2023-05-09T03:53:00;9.50;99.90
38582;DHT22;24349;53.720;10.014;2023-05-09T03:55:26;9.40;8.50
38582;DHT22;24349;53.720;10.014;2023-05-09T03:57:53;9.40;99.90
38582;DHT22;24349;53.720;10.014;2023-05-09T04:00:19;9.30;14.80
38582;DHT22;24349;53.720;10.014;2023-05-09T04:02:44;9.30;99.90
38582;DHT22;24349;53.720;10.014;2023-05-09T04:05:10;9.40;1.00
38582;DHT22;24349;53.720;10.014;2023-05-09T04:07:36;9.30;99.90
38582;DHT22;24349;53.720;10.014;2023-05-09T04:10:02;9.40;99.90
38582;DHT22;24349;53.720;10.014;2023-05-09T04:12:27;9.40;99.90
38582;DHT22;24349;53.720;10.014;2023-05-09T04:14:53;9.40;99.90
38582;DHT22;24349;53.720;10.014;2023-05-09T04:17:19;9.30;1.00
38582;DHT22;24349;53.720;10.014;2023-05-09T04:19:44;9.30;99.90
38582;DHT22;24349;53.720;10.014;2023-05-09T04:22:10;9.30;1.00
38582;DHT22;24349;53.720;10.014;2023-05-09T04:24:35;9.30;1.00
38582;DHT22;24349;53.720;10.014;2023-05-09T04:27:01;9.30;88.60
38582;DHT22;24349;53.720;10.014;2023-05-09T04:29:27;9.30;99.90
38582;DHT22;24349;53.720;10.014;2023-05-09T04:31:53;9.30;1.00
38582;DHT22;24349;53.720;10.014;2023-05-09T04:34:18;9.30;1.00
38582;DHT22;24349;53.720;10.014;2023-05-09T04:36:44;9.40;98.70
38582;DHT22;24349;53.720;10.014;2023-05-09T04:39:10;9.40;99.90
38582;DHT22;24349;53.720;10.014;2023-05-09T04:41:35;9.50;1.00
38582;DHT22;24349;53.720;10.014;2023-05-09T04:44:01;9.40;1.00
38582;DHT22;24349;53.720;10.014;2023-05-09T04:46:27;9.40;99.90
38582;DHT22;24349;53.720;10.014;2023-05-09T04:48:53;9.50;1.00
38582;DHT22;24349;53.720;10.014;2023-05-09T04:51:18;9.50;99.90
38582;DHT22;24349;53.720;10.014;2023-05-09T04:53:44;9.60;1.00
38582;DHT22;24349;53.720;10.014;2023-05-09T04:56:10;9.50;99.90
38582;DHT22;24349;53.720;10.014;2023-05-09T04:58:35;9.70;1.00
38582;DHT22;24349;53.720;10.014;2023-05-09T05:01:04;9.70;1.00
38582;DHT22;24349;53.720;10.014;2023-05-09T05:03:30;9.80;1.00
38582;DHT22;24349;53.720;10.014;2023-05-09T05:05:56;9.90;1.00
38582;DHT22;24349;53.720;10.014;2023-05-09T05:08:22;10.00;1.00
38582;DHT22;24349;53.720;10.014;2023-05-09T05:10:48;10.20;99.90
38582;DHT22;24349;53.720;10.014;2023-05-09T05:13:14;10.20;1.00
38582;DHT22;24349;53.720;10.014;2023-05-09T05:15:40;10.30;99.90
38582;DHT22;24349;53.720;10.014;2023-05-09T05:18:05;10.60;1.00
38582;DHT22;24349;53.720;10.014;2023-05-09T05:20:31;10.70;99.90
38582;DHT22;24349;53.720;10.014;2023-05-09T05:22:57;10.90;1.00
38582;DHT22;24349;53.720;10.014;2023-05-09T05:25:23;10.90;99.90
38582;DHT22;24349;53.720;10.014;2023-05-09T05:27:49;10.90;99.90
38582;DHT22;24349;53.720;10.014;2023-05-09T05:30:14;11.30;99.90
38582;DHT22;24349;53.720;10.014;2023-05-09T05:32:40;11.10;1.00
38582;DHT22;24349;53.720;10.014;2023-05-09T05:35:06;11.20;99.90
38582;DHT22;24349;53.720;10.014;2023-05-09T05:37:34;11.30;99.90
38582;DHT22;24349;53.720;10.014;2023-05-09T05:39:59;12.00;99.90
38582;DHT22;24349;53.720;10.014;2023-05-09T05:42:25;12.10;99.90
38582;DHT22;24349;53.720;10.014;2023-05-09T05:44:51;11.90;99.90
38582;DHT22;24349;53.720;10.014;2023-05-09T05:47:16;11.90;99.90
38582;DHT22;24349;53.720;10.014;2023-05-09T05:49:42;11.70;99.90
38582;DHT22;24349;53.720;10.014;2023-05-09T05:52:07;11.90;99.90
38582;DHT22;24349;53.720;10.014;2023-05-09T05:54:33;11.80;99.90
38582;DHT22;24349;53.720;10.014;2023-05-09T05:56:59;12.00;99.90
38582;DHT22;24349;53.720;10.014;2023-05-09T05:59:24;12.30;99.90
38582;DHT22;24349;53.720;10.014;2023-05-09T06:01:50;12.30;99.90
38582;DHT22;24349;53.720;10.014;2023-05-09T06:04:15;12.30;99.90
38582;DHT22;24349;53.720;10.014;2023-05-09T06:06:41;12.50;99.90
38582;DHT22;24349;53.720;10.014;2023-05-09T06:09:07;12.50;99.90
38582;DHT22;24349;53.720;10.014;2023-05-09T06:11:32;12.70;99.90
38582;DHT22;24349;53.720;10.014;2023-05-09T06:13:58;13.30;99.90
38582;DHT22;24349;53.720;10.014;2023-05-09T06:16:23;13.60;99.90
38582;DHT22;24349;53.720;10.014;2023-05-09T06:18:49;13.40;99.90
38582;DHT22;24349;53.720;10.014;2023-05-09T06:21:15;13.90;99.90
38582;DHT22;24349;53.720;10.014;2023-05-09T06:23:41;14.00;99.90
38582;DHT22;24349;53.720;10.014;2023-05-09T06:26:06;13.90;99.90
38582;DHT22;24349;53.720;10.014;2023-05-09T06:28:32;13.90;99.90
38582;DHT22;24349;53.720;10.014;2023-05-09T06:30:58;13.90;99.90
38582;DHT22;24349;53.720;10.014;2023-05-09T06:33:23;13.90;99.90
38582;DHT22;24349;53.720;10.014;2023-05-09T06:35:49;14.40;99.90
38582;DHT22;24349;53.720;10.014;2023-05-09T06:38:14;14.70;99.90
38582;DHT22;24349;53.720;10.014;2023-05-09T06:40:40;14.30;99.90
38582;DHT22;24349;53.720;10.014;2023-05-09T06:43:06;14.10;99.90
38582;DHT22;24349;53.720;10.014;2023-05-09T06:45:32;13.90;99.90
38582;DHT22;24349;53.720;10.014;2023-05-09T06:47:57;13.80;99.90
38582;DHT22;24349;53.720;10.014;2023-05-09T06:50:23;14.60;99.90
38582;DHT22;24349;53.720;10.014;2023-05-09T06:52:48;14.90;99.90
38582;DHT22;24349;53.720;10.014;2023-05-09T06:55:14;15.10;99.90
38582;DHT22;24349;53.720;10.014;2023-05-09T06:57:40;15.00;99.90
38582;DHT22;24349;53.720;10.014;2023-05-09T07:00:06;15.10;99.90
38582;DHT22;24349;53.720;10.014;2023-05-09T07:02:32;15.40;99.90
38582;DHT22;24349;53.720;10.014;2023-05-09T07:04:57;15.60;99.90
38582;DHT22;24349;53.720;10.014;2023-05-09T07:07:23;15.20;99.90
38582;DHT22;24349;53.720;10.014;2023-05-09T07:09:48;15.30;99.90
38582;DHT22;24349;53.720;10.014;2023-05-09T07:12:14;15.80;99.90
38582;DHT22;24349;53.720;10.014;2023-05-09T07:14:40;15.90;99.90
38582;DHT22;24349;53.720;10.014;2023-05-09T07:17:06;16.30;99.90
38582;DHT22;24349;53.720;10.014;2023-05-09T07:19:33;16.60;99.90
38582;DHT22;24349;53.720;10.014;2023-05-09T07:21:58;16.70;99.90
38582;DHT22;24349;53.720;10.014;2023-05-09T07:24:24;17.00;99.90
38582;DHT22;24349;53.720;10.014;2023-05-09T07:26:49;16.80;99.90
38582;DHT22;24349;53.720;10.014;2023-05-09T07:29:15;16.80;99.90
38582;DHT22;24349;53.720;10.014;2023-05-09T07:31:43;17.10;99.90
38582;DHT22;24349;53.720;10.014;2023-05-09T07:34:08;17.20;99.90
38582;DHT22;24349;53.720;10.014;2023-05-09T07:36:34;17.60;99.90
38582;DHT22;24349;53.720;10.014;2023-05-09T07:39:01;17.30;99.90
38582;DHT22;24349;53.720;10.014;2023-05-09T07:41:29;17.00;99.90
38582;DHT22;24349;53.720;10.014;2023-05-09T07:43:55;16.80;99.90
38582;DHT22;24349;53.720;10.014;2023-05-09T07:46:21;17.40;99.90
38582;DHT22;24349;53.720;10.014;2023-05-09T07:48:46;18.00;99.90
38582;DHT22;24349;53.720;10.014;2023-05-09T07:51:12;18.10;99.90
38582;DHT22;24349;53.720;10.014;2023-05-09T07:53:38;18.60;99.90
38582;DHT22;24349;53.720;10.014;2023-05-09T07:56:03;19.00;99.90
38582;DHT22;24349;53.720;10.014;2023-05-09T07:58:31;19.10;99.90
38582;DHT22;24349;53.720;10.014;2023-05-09T08:00:56;18.00;99.90
38582;DHT22;24349;53.720;10.014;2023-05-09T08:03:22;17.70;99.90
38582;DHT22;24349;53.720;10.014;2023-05-09T08:05:48;17.70;99.90
38582;DHT22;24349;53.720;10.014;2023-05-09T08:08:13;17.80;99.90
38582;DHT22;24349;53.720;10.014;2023-05-09T08:10:39;18.00;99.90
38582;DHT22;24349;53.720;10.014;2023-05-09T08:13:05;18.00;99.90
38582;DHT22;24349;53.720;10.014;2023-05-09T08:15:30;18.10;99.90
38582;DHT22;24349;53.720;10.014;2023-05-09T08:17:56;18.00;99.90
38582;DHT22;24349;53.720;10.014;2023-05-09T08:20:21;17.90;99.90
38582;DHT22;24349;53.720;10.014;2023-05-09T08:22:48;18.10;99.90
38582;DHT22;24349;53.720;10.014;2023-05-09T08:25:14;18.10;99.90
38582;DHT22;24349;53.720;10.014;2023-05-09T08:27:42;17.80;99.90
38582;DHT22;24349;53.720;10.014;2023-05-09T08:30:08;17.60;99.90
38582;DHT22;24349;53.720;10.014;2023-05-09T08:32:34;18.00;99.90
38582;DHT22;24349;53.720;10.014;2023-05-09T08:35:00;18.30;99.90
38582;DHT22;24349;53.720;10.014;2023-05-09T08:37:25;18.30;99.90
38582;DHT22;24349;53.720;10.014;2023-05-09T08:39:51;18.50;99.90
38582;DHT22;24349;53.720;10.014;2023-05-09T08:42:18;18.50;99.90
38582;DHT22;24349;53.720;10.014;2023-05-09T08:44:47;18.90;99.90
38582;DHT22;24349;53.720;10.014;2023-05-09T08:47:13;19.10;99.90
38582;DHT22;24349;53.720;10.014;2023-05-09T08:49:39;19.30;99.90
38582;DHT22;24349;53.720;10.014;2023-05-09T08:52:05;19.50;99.90
38582;DHT22;24349;53.720;10.014;2023-05-09T08:54:32;19.70;99.90
38582;DHT22;24349;53.720;10.014;2023-05-09T08:57:00;19.90;99.90
38582;DHT22;24349;53.720;10.014;2023-05-09T08:59:25;19.90;99.90
38582;DHT22;24349;53.720;10.014;2023-05-09T09:01:52;19.40;99.90
38582;DHT22;24349;53.720;10.014;2023-05-09T09:04:18;19.70;99.90
38582;DHT22;24349;53.720;10.014;2023-05-09T09:06:44;20.10;99.90
38582;DHT22;24349;53.720;10.014;2023-05-09T09:09:10;20.10;99.90
38582;DHT22;24349;53.720;10.014;2023-05-09T09:11:39;19.80;99.90
38582;DHT22;24349;53.720;10.014;2023-05-09T09:14:11;20.00;99.90
38582;DHT22;24349;53.720;10.014;2023-05-09T09:16:37;20.20;99.90
38582;DHT22;24349;53.720;10.014;2023-05-09T09:19:12;20.50;99.90
38582;DHT22;24349;53.720;10.014;2023-05-09T09:21:40;19.90;99.90
38582;DHT22;24349;53.720;10.014;2023-05-09T09:24:07;20.30;99.90
38582;DHT22;24349;53.720;10.014;2023-05-09T09:26:32;20.40;99.90
38582;DHT22;24349;53.720;10.014;2023-05-09T09:28:58;19.90;99.90
38582;DHT22;24349;53.720;10.014;2023-05-09T09:31:25;20.30;99.90
38582;DHT22;24349;53.720;10.014;2023-05-09T09:34:01;20.00;99.90
38582;DHT22;24349;53.720;10.014;2023-05-09T09:36:28;19.70;99.90
38582;DHT22;24349;53.720;10.014;2023-05-09T09:39:02;20.00;99.90
38582;DHT22;24349;53.720;10.014;2023-05-09T09:41:31;20.10;99.90
38582;DHT22;24349;53.720;10.014;2023-05-09T09:43:57;20.00;99.90
38582;DHT22;24349;53.720;10.014;2023-05-09T09:46:23;20.20;99.90
38582;DHT22;24349;53.720;10.014;2023-05-09T09:48:49;20.40;99.90
38582;DHT22;24349;53.720;10.014;2023-05-09T09:51:19;20.20;99.90
38582;DHT22;24349;53.720;10.014;2023-05-09T09:53:45;20.30;99.90
38582;DHT22;24349;53.720;10.014;2023-05-09T09:56:11;20.10;99.40
38582;DHT22;24349;53.720;10.014;2023-05-09T09:58:37;20.20;99.90
38582;DHT22;24349;53.720;10.014;2023-05-09T10:01:08;20.20;99.80
38582;DHT22;24349;53.720;10.014;2023-05-09T10:03:44;20.50;99.90
38582;DHT22;24349;53.720;10.014;2023-05-09T10:06:15;20.40;99.30
38582;DHT22;24349;53.720;10.014;2023-05-09T10:08:41;20.90;99.90
38582;DHT22;24349;53.720;10.014;2023-05-09T10:11:08;21.40;99.90
38582;DHT22;24349;53.720;10.014;2023-05-09T10:13:34;21.40;99.40
38582;DHT22;24349;53.720;10.014;2023-05-09T10:16:02;21.00;99.50
38582;DHT22;24349;53.720;10.014;2023-05-09T10:18:29;21.00;99.00
38582;DHT22;24349;53.720;10.014;2023-05-09T10:20:56;20.90;98.10
38582;DHT22;24349;53.720;10.014;2023-05-09T10:23:30;21.20;98.10
38582;DHT22;24349;53.720;10.014;2023-05-09T10:26:10;21.40;99.00
38582;DHT22;24349;53.720;10.014;2023-05-09T10:28:39;20.90;97.90
38582;DHT22;24349;53.720;10.014;2023-05-09T10:31:09;20.60;96.60
38582;DHT22;24349;53.720;10.014;2023-05-09T10:33:43;21.20;98.70
38582;DHT22;24349;53.720;10.014;2023-05-09T10:36:11;21.40;98.50
38582;DHT22;24349;53.720;10.014;2023-05-09T10:38:38;21.50;97.70
38582;DHT22;24349;53.720;10.014;2023-05-09T10:41:04;22.20;98.50
38582;DHT22;24349;53.720;10.014;2023-05-09T10:43:31;22.10;97.30
38582;DHT22;24349;53.720;10.014;2023-05-09T10:45:57;22.00;96.10
38582;DHT22;24349;53.720;10.014;2023-05-09T10:48:23;22.00;97.30
38582;DHT22;24349;53.720;10.014;2023-05-09T10:50:49;21.60;95.70
38582;DHT22;24349;53.720;10.014;2023-05-09T10:53:15;21.40;96.50
38582;DHT22;24349;53.720;10.014;2023-05-09T10:58:22;21.70;97.20
38582;DHT22;24349;53.720;10.014;2023-05-09T11:00:49;21.70;96.30
38582;DHT22;24349;53.720;10.014;2023-05-09T11:03:15;21.70;95.80
38582;DHT22;24349;53.720;10.014;2023-05-09T11:05:45;21.50;96.00
38582;DHT22;24349;53.720;10.014;2023-05-09T11:08:28;21.50;96.80
38582;DHT22;24349;53.720;10.014;2023-05-09T11:11:05;21.50;95.70
38582;DHT22;24349;53.720;10.014;2023-05-09T11:13:33;21.60;94.60
38582;DHT22;24349;53.720;10.014;2023-05-09T11:18:30;21.90;95.70
38582;DHT22;24349;53.720;10.014;2023-05-09T11:20:56;22.00;95.30
38582;DHT22;24349;53.720;10.014;2023-05-09T11:23:28;21.70;93.60
38582;DHT22;24349;53.720;10.014;2023-05-09T11:26:02;21.90;95.40
38582;DHT22;24349;53.720;10.014;2023-05-09T11:28:30;22.00;94.00
38582;DHT22;24349;53.720;10.014;2023-05-09T11:31:12;22.50;93.20
38582;DHT22;24349;53.720;10.014;2023-05-09T11:33:38;22.30;94.20
38582;DHT22;24349;53.720;10.014;2023-05-09T11:36:18;22.40;93.60
38582;DHT22;24349;53.720;10.014;2023-05-09T11:38:47;22.40;93.10
38582;DHT22;24349;53.720;10.014;2023-05-09T11:41:14;22.30;91.80
38582;DHT22;24349;53.720;10.014;2023-05-09T11:43:41;22.30;90.60
38582;DHT22;24349;53.720;10.014;2023-05-09T11:46:07;22.50;90.50
38582;DHT22;24349;53.720;10.014;2023-05-09T11:48:37;22.80;91.70
38582;DHT22;24349;53.720;10.014;2023-05-09T11:51:03;23.00;91.80
38582;DHT22;24349;53.720;10.014;2023-05-09T11:53:29;23.20;91.70
38582;DHT22;24349;53.720;10.014;2023-05-09T11:55:55;22.80;92.70
38582;DHT22;24349;53.720;10.014;2023-05-09T11:58:20;22.70;92.00
38582;DHT22;24349;53.720;10.014;2023-05-09T12:00:46;23.10;92.00
38582;DHT22;24349;53.720;10.014;2023-05-09T12:03:12;23.30;90.60
38582;DHT22;24349;53.720;10.014;2023-05-09T12:05:38;22.90;90.70
38582;DHT22;24349;53.720;10.014;2023-05-09T12:08:05;23.00;92.00
38582;DHT22;24349;53.720;10.014;2023-05-09T12:10:31;23.20;90.30
38582;DHT22;24349;53.720;10.014;2023-05-09T12:12:57;22.90;89.20
38582;DHT22;24349;53.720;10.014;2023-05-09T12:15:23;22.90;89.70
38582;DHT22;24349;53.720;10.014;2023-05-09T12:18:06;23.20;90.40
38582;DHT22;24349;53.720;10.014;2023-05-09T12:20:47;23.30;90.10
38582;DHT22;24349;53.720;10.014;2023-05-09T12:23:14;23.40;92.60
38582;DHT22;24349;53.720;10.014;2023-05-09T12:25:53;23.80;91.70
38582;DHT22;24349;53.720;10.014;2023-05-09T12:28:21;24.00;90.00
38582;DHT22;24349;53.720;10.014;2023-05-09T12:30:47;23.60;87.30
38582;DHT22;24349;53.720;10.014;2023-05-09T12:33:14;23.60;88.00
38582;DHT22;24349;53.720;10.014;2023-05-09T12:35:47;23.70;85.60
38582;DHT22;24349;53.720;10.014;2023-05-09T12:38:22;24.20;88.80
38582;DHT22;24349;53.720;10.014;2023-05-09T12:41:02;24.40;86.60
38582;DHT22;24349;53.720;10.014;2023-05-09T12:43:32;24.10;85.40
38582;DHT22;24349;53.720;10.014;2023-05-09T12:45:59;24.20;86.80
38582;DHT22;24349;53.720;10.014;2023-05-09T12:48:25;24.80;88.00
38582;DHT22;24349;53.720;10.014;2023-05-09T12:50:52;24.60;88.10
38582;DHT22;24349;53.720;10.014;2023-05-09T12:53:27;24.20;85.30
38582;DHT22;24349;53.720;10.014;2023-05-09T12:56:03;24.00;83.80
38582;DHT22;24349;53.720;10.014;2023-05-09T12:58:33;24.60;87.50
38582;DHT22;24349;53.720;10.014;2023-05-09T13:01:01;24.70;87.70
38582;DHT22;24349;53.720;10.014;2023-05-09T13:03:28;25.00;87.40
38582;DHT22;24349;53.720;10.014;2023-05-09T13:06:03;24.50;85.20
38582;DHT22;24349;53.720;10.014;2023-05-09T13:08:31;24.80;87.20
38582;DHT22;24349;53.720;10.014;2023-05-09T13:10:58;24.60;85.00
38582;DHT22;24349;53.720;10.014;2023-05-09T13:13:25;25.10;90.20
38582;DHT22;24349;53.720;10.014;2023-05-09T13:15:52;25.00;83.70
38582;DHT22;24349;53.720;10.014;2023-05-09T13:18:17;24.70;84.30
38582;DHT22;24349;53.720;10.014;2023-05-09T13:20:43;24.20;87.90
38582;DHT22;24349;53.720;10.014;2023-05-09T13:23:09;24.60;86.00
38582;DHT22;24349;53.720;10.014;2023-05-09T13:25:34;24.50;83.80
38582;DHT22;24349;53.720;10.014;2023-05-09T13:28:00;24.80;84.30
38582;DHT22;24349;53.720;10.014;2023-05-09T13:30:26;25.10;84.50
38582;DHT22;24349;53.720;10.014;2023-05-09T13:32:51;24.70;81.70
38582;DHT22;24349;53.720;10.014;2023-05-09T13:35:17;24.20;83.50
38582;DHT22;24349;53.720;10.014;2023-05-09T13:37:43;24.00;80.00
38582;DHT22;24349;53.720;10.014;2023-05-09T13:40:09;23.50;84.00
38582;DHT22;24349;53.720;10.014;2023-05-09T13:42:35;23.00;85.70
38582;DHT22;24349;53.720;10.014;2023-05-09T13:45:01;23.00;87.90
38582;DHT22;24349;53.720;10.014;2023-05-09T13:47:27;23.00;87.00
38582;DHT22;24349;53.720;10.014;2023-05-09T13:49:52;22.80;85.10
38582;DHT22;24349;53.720;10.014;2023-05-09T13:52:18;22.80;88.90
38582;DHT22;24349;53.720;10.014;2023-05-09T13:54:44;23.00;85.90
38582;DHT22;24349;53.720;10.014;2023-05-09T13:57:10;22.80;85.60
38582;DHT22;24349;53.720;10.014;2023-05-09T13:59:36;22.40;86.60
38582;DHT22;24349;53.720;10.014;2023-05-09T14:02:01;22.30;85.30
38582;DHT22;24349;53.720;10.014;2023-05-09T14:04:28;22.10;86.10
38582;DHT22;24349;53.720;10.014;2023-05-09T14:06:56;21.90;87.60
38582;DHT22;24349;53.720;10.014;2023-05-09T14:09:23;21.80;87.60
38582;DHT22;24349;53.720;10.014;2023-05-09T14:11:49;21.70;87.10
38582;DHT22;24349;53.720;10.014;2023-05-09T14:14:18;21.60;86.70
38582;DHT22;24349;53.720;10.014;2023-05-09T14:16:45;21.90;89.20
38582;DHT22;24349;53.720;10.014;2023-05-09T14:19:11;21.90;88.30
38582;DHT22;24349;53.720;10.014;2023-05-09T14:21:36;21.70;87.60
38582;DHT22;24349;53.720;10.014;2023-05-09T14:24:02;21.70;87.70
38582;DHT22;24349;53.720;10.014;2023-05-09T14:26:28;22.00;91.00
38582;DHT22;24349;53.720;10.014;2023-05-09T14:28:54;21.90;87.80
38582;DHT22;24349;53.720;10.014;2023-05-09T14:31:19;22.00;86.90
38582;DHT22;24349;53.720;10.014;2023-05-09T14:33:45;22.00;86.50
38582;DHT22;24349;53.720;10.014;2023-05-09T14:36:11;22.00;86.60
38582;DHT22;24349;53.720;10.014;2023-05-09T14:38:37;21.90;85.40
38582;DHT22;24349;53.720;10.014;2023-05-09T14:41:03;21.80;85.30
38582;DHT22;24349;53.720;10.014;2023-05-09T14:43:28;22.00;85.30
38582;DHT22;24349;53.720;10.014;2023-05-09T14:45:54;22.20;87.90
38582;DHT22;24349;53.720;10.014;2023-05-09T14:48:21;21.90;85.00
38582;DHT22;24349;53.720;10.014;2023-05-09T14:50:47;21.90;85.80
38582;DHT22;24349;53.720;10.014;2023-05-09T14:53:14;21.70;85.50
38582;DHT22;24349;53.720;10.014;2023-05-09T14:55:39;21.50;86.30
38582;DHT22;24349;53.720;10.014;2023-05-09T14:58:05;21.70;86.20
38582;DHT22;24349;53.720;10.014;2023-05-09T15:00:30;21.90;86.90
38582;DHT22;24349;53.720;10.014;2023-05-09T15:02:57;22.00;86.10
38582;DHT22;24349;53.720;10.014;2023-05-09T15:05:23;22.10;86.80
38582;DHT22;24349;53.720;10.014;2023-05-09T15:07:48;22.20;85.60
38582;DHT22;24349;53.720;10.014;2023-05-09T15:10:14;22.20;86.70
38582;DHT22;24349;53.720;10.014;2023-05-09T15:12:40;22.10;86.00
38582;DHT22;24349;53.720;10.014;2023-05-09T15:15:16;21.80;85.10
38582;DHT22;24349;53.720;10.014;2023-05-09T15:17:43;21.90;84.30
38582;DHT22;24349;53.720;10.014;2023-05-09T15:20:10;21.70;84.30
38582;DHT22;24349;53.720;10.014;2023-05-09T15:22:36;21.80;84.60
38582;DHT22;24349;53.720;10.014;2023-05-09T15:25:02;21.80;85.00
38582;DHT22;24349;53.720;10.014;2023-05-09T15:27:29;22.00;87.00
38582;DHT22;24349;53.720;10.014;2023-05-09T15:29:55;22.10;86.50
38582;DHT22;24349;53.720;10.014;2023-05-09T15:32:20;22.00;85.40
38582;DHT22;24349;53.720;10.014;2023-05-09T15:34:46;21.90;83.50
38582;DHT22;24349;53.720;10.014;2023-05-09T15:37:12;21.80;85.70